sensor_id;sensor_type;location;lat;lon;timestamp;P1;durP1;ratioP1;P2;durP2;ratioP2
56599;SDS011;51832;48.152;11.530;2023-08-06T00:04:01;4.88;;;4.05;;
56599;SDS011;51832;48.152;11.530;2023-08-06T00:09:01;6.40;;;4.10;;
56599;SDS011;51832;48.152;11.530;2023-08-06T00:14:02;6.03;;;4.20;;
56599;SDS011;51832;48.152;11.530;2023-08-06T00:19:02;5.13;;;4.23;;
56599;SDS011;51832;48.152;11.530;2023-08-06T00:24:03;4.68;;;3.70;;
56599;SDS011;51832;48.152;11.530;2023-08-06T00:29:03;5.03;;;3.78;;
56599;SDS011;51832;48.152;11.530;2023-08-06T00:34:04;6.93;;;3.77;;
56599;SDS011;51832;48.152;11.530;2023-08-06T00:39:04;6.45;;;3.97;;
56599;SDS011;51832;48.152;11.530;2023-08-06T00:44:05;5.55;;;3.42;;
56599;SDS011;51832;48.152;11.530;2023-08-06T00:49:05;4.78;;;3.78;;
56599;SDS011;51832;48.152;11.530;2023-08-06T00:54:06;3.97;;;3.42;;
56599;SDS011;51832;48.152;11.530;2023-08-06T00:59:06;5.10;;;3.50;;
56599;SDS011;51832;48.152;11.530;2023-08-06T01:04:07;5.10;;;3.40;;
56599;SDS011;51832;48.152;11.530;2023-08-06T01:14:58;4.78;;;3.38;;
56599;SDS011;51832;48.152;11.530;2023-08-06T01:20:06;5.55;;;3.72;;
56599;SDS011;51832;48.152;11.530;2023-08-06T01:25:07;6.03;;;4.10;;
56599;SDS011;51832;48.152;11.530;2023-08-06T01:30:18;4.43;;;3.90;;
56599;SDS011;51832;48.152;11.530;2023-08-06T01:35:27;5.63;;;4.18;;
56599;SDS011;51832;48.152;11.530;2023-08-06T01:40:29;5.93;;;4.38;;
56599;SDS011;51832;48.152;11.530;2023-08-06T01:45:29;7.03;;;4.47;;
56599;SDS011;51832;48.152;11.530;2023-08-06T01:50:30;6.07;;;4.32;;
56599;SDS011;51832;48.152;11.530;2023-08-06T01:55:30;6.95;;;4.18;;
56599;SDS011;51832;48.152;11.530;2023-08-06T02:00:31;5.80;;;3.88;;
56599;SDS011;51832;48.152;11.530;2023-08-06T02:05:31;5.53;;;4.10;;
56599;SDS011;51832;48.152;11.530;2023-08-06T02:10:32;4.45;;;3.45;;
56599;SDS011;51832;48.152;11.530;2023-08-06T02:15:32;4.65;;;3.83;;
56599;SDS011;51832;48.152;11.530;2023-08-06T02:20:33;5.85;;;3.45;;
56599;SDS011;51832;48.152;11.530;2023-08-06T02:25:33;4.20;;;3.25;;
56599;SDS011;51832;48.152;11.530;2023-08-06T02:30:33;4.57;;;3.03;;
56599;SDS011;51832;48.152;11.530;2023-08-06T02:35:34;5.70;;;3.45;;
56599;SDS011;51832;48.152;11.530;2023-08-06T02:40:34;4.57;;;3.17;;
56599;SDS011;51832;48.152;11.530;2023-08-06T02:45:35;3.58;;;2.70;;
56599;SDS011;51832;48.152;11.530;2023-08-06T02:50:39;4.30;;;2.95;;
56599;SDS011;51832;48.152;11.530;2023-08-06T02:55:44;4.32;;;2.80;;
56599;SDS011;51832;48.152;11.530;2023-08-06T03:01:08;3.85;;;2.60;;
56599;SDS011;51832;48.152;11.530;2023-08-06T03:06:08;2.90;;;2.60;;
56599;SDS011;51832;48.152;11.530;2023-08-06T03:11:08;2.72;;;2.53;;
56599;SDS011;51832;48.152;11.530;2023-08-06T03:16:09;3.05;;;2.75;;
56599;SDS011;51832;48.152;11.530;2023-08-06T03:21:09;3.05;;;2.60;;
56599;SDS011;51832;48.152;11.530;2023-08-06T03:26:10;3.33;;;2.65;;
56599;SDS011;51832;48.152;11.530;2023-08-06T03:31:10;2.85;;;2.58;;
56599;SDS011;51832;48.152;11.530;2023-08-06T03:36:11;3.13;;;2.47;;
56599;SDS011;51832;48.152;11.530;2023-08-06T03:41:11;3.30;;;2.63;;
56599;SDS011;51832;48.152;11.530;2023-08-06T03:46:12;2.38;;;2.13;;
56599;SDS011;51832;48.152;11.530;2023-08-06T03:51:12;3.10;;;2.37;;
56599;SDS011;51832;48.152;11.530;2023-08-06T03:56:13;4.75;;;2.83;;
56599;SDS011;51832;48.152;11.530;2023-08-06T04:01:13;2.67;;;2.40;;
56599;SDS011;51832;48.152;11.530;2023-08-06T04:06:13;4.93;;;2.65;;
56599;SDS011;51832;48.152;11.530;2023-08-06T04:11:14;3.00;;;2.33;;
56599;SDS011;51832;48.152;11.530;2023-08-06T04:16:14;2.87;;;2.23;;
56599;SDS011;51832;48.152;11.530;2023-08-06T04:21:15;4.22;;;2.40;;
56599;SDS011;51832;48.152;11.530;2023-08-06T04:26:15;3.00;;;2.30;;
56599;SDS011;51832;48.152;11.530;2023-08-06T04:31:16;3.30;;;2.13;;
56599;SDS011;51832;48.152;11.530;2023-08-06T04:36:16;4.75;;;2.20;;
56599;SDS011;51832;48.152;11.530;2023-08-06T04:41:17;2.50;;;2.30;;
56599;SDS011;51832;48.152;11.530;2023-08-06T04:46:18;4.35;;;2.13;;
56599;SDS011;51832;48.152;11.530;2023-08-06T04:51:18;3.25;;;2.20;;
56599;SDS011;51832;48.152;11.530;2023-08-06T04:56:18;2.90;;;2.13;;
56599;SDS011;51832;48.152;11.530;2023-08-06T05:01:19;3.05;;;2.15;;
56599;SDS011;51832;48.152;11.530;2023-08-06T05:06:20;2.53;;;2.33;;
56599;SDS011;51832;48.152;11.530;2023-08-06T05:11:20;3.17;;;2.20;;
56599;SDS011;51832;48.152;11.530;2023-08-06T05:16:20;3.47;;;2.30;;
56599;SDS011;51832;48.152;11.530;2023-08-06T05:21:21;3.47;;;2.17;;
56599;SDS011;51832;48.152;11.530;2023-08-06T05:26:21;2.60;;;2.03;;
56599;SDS011;51832;48.152;11.530;2023-08-06T05:31:22;3.00;;;2.38;;
56599;SDS011;51832;48.152;11.530;2023-08-06T05:36:22;3.65;;;2.08;;
56599;SDS011;51832;48.152;11.530;2023-08-06T05:41:23;4.43;;;2.20;;
56599;SDS011;51832;48.152;11.530;2023-08-06T05:46:23;3.42;;;2.28;;
56599;SDS011;51832;48.152;11.530;2023-08-06T05:51:25;2.53;;;1.67;;
56599;SDS011;51832;48.152;11.530;2023-08-06T05:56:27;2.33;;;1.88;;
56599;SDS011;51832;48.152;11.530;2023-08-06T06:01:27;2.15;;;1.90;;
56599;SDS011;51832;48.152;11.530;2023-08-06T06:06:27;2.20;;;1.80;;
56599;SDS011;51832;48.152;11.530;2023-08-06T06:11:28;2.63;;;1.87;;
56599;SDS011;51832;48.152;11.530;2023-08-06T06:16:28;2.95;;;2.25;;
56599;SDS011;51832;48.152;11.530;2023-08-06T06:21:29;1.65;;;1.55;;
56599;SDS011;51832;48.152;11.530;2023-08-06T06:26:30;1.88;;;1.65;;
56599;SDS011;51832;48.152;11.530;2023-08-06T06:31:30;1.40;;;1.30;;
56599;SDS011;51832;48.152;11.530;2023-08-06T06:36:31;3.90;;;1.75;;
56599;SDS011;51832;48.152;11.530;2023-08-06T06:41:31;1.80;;;1.50;;
56599;SDS011;51832;48.152;11.530;2023-08-06T06:46:33;2.00;;;1.50;;
56599;SDS011;51832;48.152;11.530;2023-08-06T06:51:33;2.83;;;1.50;;
56599;SDS011;51832;48.152;11.530;2023-08-06T06:56:33;2.60;;;1.45;;
56599;SDS011;51832;48.152;11.530;2023-08-06T07:01:34;3.22;;;1.50;;
56599;SDS011;51832;48.152;11.530;2023-08-06T07:06:34;1.60;;;1.02;;
56599;SDS011;51832;48.152;11.530;2023-08-06T07:11:35;2.63;;;0.90;;
56599;SDS011;51832;48.152;11.530;2023-08-06T07:16:35;2.55;;;1.17;;
56599;SDS011;51832;48.152;11.530;2023-08-06T07:21:35;1.70;;;0.85;;
56599;SDS011;51832;48.152;11.530;2023-08-06T07:26:36;1.15;;;0.88;;
56599;SDS011;51832;48.152;11.530;2023-08-06T07:31:37;1.67;;;0.88;;
56599;SDS011;51832;48.152;11.530;2023-08-06T07:36:37;1.23;;;0.82;;
56599;SDS011;51832;48.152;11.530;2023-08-06T07:41:38;1.67;;;0.98;;
56599;SDS011;51832;48.152;11.530;2023-08-06T07:46:39;2.47;;;1.00;;
56599;SDS011;51832;48.152;11.530;2023-08-06T07:51:41;3.70;;;1.05;;
56599;SDS011;51832;48.152;11.530;2023-08-06T07:56:41;1.80;;;0.90;;
56599;SDS011;51832;48.152;11.530;2023-08-06T08:01:42;3.97;;;0.80;;
56599;SDS011;51832;48.152;11.530;2023-08-06T08:06:42;0.93;;;0.70;;
56599;SDS011;51832;48.152;11.530;2023-08-06T08:11:43;1.42;;;0.88;;
56599;SDS011;51832;48.152;11.530;2023-08-06T08:16:46;0.88;;;0.73;;
56599;SDS011;51832;48.152;11.530;2023-08-06T08:21:46;0.70;;;0.70;;
56599;SDS011;51832;48.152;11.530;2023-08-06T08:26:47;0.55;;;0.52;;
56599;SDS011;51832;48.152;11.530;2023-08-06T08:31:48;2.45;;;0.75;;
56599;SDS011;51832;48.152;11.530;2023-08-06T08:36:51;1.45;;;0.50;;
56599;SDS011;51832;48.152;11.530;2023-08-06T08:41:52;1.30;;;0.60;;
56599;SDS011;51832;48.152;11.530;2023-08-06T08:46:52;0.60;;;0.60;;
56599;SDS011;51832;48.152;11.530;2023-08-06T08:51:53;0.82;;;0.40;;
56599;SDS011;51832;48.152;11.530;2023-08-06T08:56:55;0.40;;;0.40;;
56599;SDS011;51832;48.152;11.530;2023-08-06T09:01:56;0.45;;;0.45;;
56599;SDS011;51832;48.152;11.530;2023-08-06T09:07:00;0.57;;;0.50;;
56599;SDS011;51832;48.152;11.530;2023-08-06T09:12:02;2.30;;;0.55;;
56599;SDS011;51832;48.152;11.530;2023-08-06T09:17:12;0.77;;;0.38;;
56599;SDS011;51832;48.152;11.530;2023-08-06T09:22:13;0.28;;;0.28;;
56599;SDS011;51832;48.152;11.530;2023-08-06T09:27:14;1.17;;;0.30;;
56599;SDS011;51832;48.152;11.530;2023-08-06T09:32:15;0.40;;;0.30;;
56599;SDS011;51832;48.152;11.530;2023-08-06T09:37:15;0.65;;;0.30;;
56599;SDS011;51832;48.152;11.530;2023-08-06T09:42:16;0.50;;;0.47;;
56599;SDS011;51832;48.152;11.530;2023-08-06T09:47:16;0.40;;;0.35;;
56599;SDS011;51832;48.152;11.530;2023-08-06T09:52:18;0.32;;;0.32;;
56599;SDS011;51832;48.152;11.530;2023-08-06T09:57:19;0.50;;;0.40;;
56599;SDS011;51832;48.152;11.530;2023-08-06T10:02:20;0.43;;;0.40;;
56599;SDS011;51832;48.152;11.530;2023-08-06T10:07:25;0.95;;;0.22;;
56599;SDS011;51832;48.152;11.530;2023-08-06T10:12:28;0.70;;;0.38;;
56599;SDS011;51832;48.152;11.530;2023-08-06T10:17:31;0.38;;;0.30;;
56599;SDS011;51832;48.152;11.530;2023-08-06T10:32:49;0.43;;;0.30;;
56599;SDS011;51832;48.152;11.530;2023-08-06T10:37:50;1.08;;;0.30;;
56599;SDS011;51832;48.152;11.530;2023-08-06T10:42:51;0.30;;;0.30;;
56599;SDS011;51832;48.152;11.530;2023-08-06T10:47:51;0.38;;;0.30;;
56599;SDS011;51832;48.152;11.530;2023-08-06T10:52:52;0.30;;;0.30;;
56599;SDS011;51832;48.152;11.530;2023-08-06T10:57:54;0.30;;;0.30;;
56599;SDS011;51832;48.152;11.530;2023-08-06T11:02:55;0.28;;;0.28;;
56599;SDS011;51832;48.152;11.530;2023-08-06T11:07:56;0.55;;;0.40;;
56599;SDS011;51832;48.152;11.530;2023-08-06T11:13:00;0.40;;;0.30;;
56599;SDS011;51832;48.152;11.530;2023-08-06T11:18:02;1.05;;;0.30;;
56599;SDS011;51832;48.152;11.530;2023-08-06T11:23:03;0.20;;;0.20;;
56599;SDS011;51832;48.152;11.530;2023-08-06T11:28:04;0.38;;;0.20;;
56599;SDS011;51832;48.152;11.530;2023-08-06T11:33:06;2.08;;;0.35;;
56599;SDS011;51832;48.152;11.530;2023-08-06T11:38:09;0.20;;;0.20;;
56599;SDS011;51832;48.152;11.530;2023-08-06T11:43:10;0.90;;;0.40;;
56599;SDS011;51832;48.152;11.530;2023-08-06T11:48:10;0.25;;;0.25;;
56599;SDS011;51832;48.152;11.530;2023-08-06T11:53:14;0.40;;;0.32;;
56599;SDS011;51832;48.152;11.530;2023-08-06T11:58:16;0.30;;;0.30;;
56599;SDS011;51832;48.152;11.530;2023-08-06T12:03:18;0.20;;;0.20;;
56599;SDS011;51832;48.152;11.530;2023-08-06T12:08:19;0.20;;;0.20;;
56599;SDS011;51832;48.152;11.530;2023-08-06T12:13:20;0.30;;;0.30;;
56599;SDS011;51832;48.152;11.530;2023-08-06T12:18:20;0.20;;;0.20;;
56599;SDS011;51832;48.152;11.530;2023-08-06T12:23:20;0.68;;;0.40;;
56599;SDS011;51832;48.152;11.530;2023-08-06T12:28:21;0.30;;;0.30;;
56599;SDS011;51832;48.152;11.530;2023-08-06T12:33:21;1.30;;;0.37;;
56599;SDS011;51832;48.152;11.530;2023-08-06T12:38:22;0.30;;;0.30;;
56599;SDS011;51832;48.152;11.530;2023-08-06T12:43:22;0.77;;;0.50;;
56599;SDS011;51832;48.152;11.530;2023-08-06T12:48:22;0.63;;;0.45;;
56599;SDS011;51832;48.152;11.530;2023-08-06T12:53:23;0.40;;;0.40;;
56599;SDS011;51832;48.152;11.530;2023-08-06T12:58:23;0.40;;;0.40;;
56599;SDS011;51832;48.152;11.530;2023-08-06T13:03:23;0.30;;;0.30;;
56599;SDS011;51832;48.152;11.530;2023-08-06T13:08:24;0.20;;;0.20;;
56599;SDS011;51832;48.152;11.530;2023-08-06T13:13:25;0.20;;;0.20;;
56599;SDS011;51832;48.152;11.530;2023-08-06T13:18:27;0.30;;;0.30;;
56599;SDS011;51832;48.152;11.530;2023-08-06T13:23:29;0.20;;;0.20;;
56599;SDS011;51832;48.152;11.530;2023-08-06T13:28:29;1.05;;;0.30;;
56599;SDS011;51832;48.152;11.530;2023-08-06T13:33:30;0.30;;;0.30;;
56599;SDS011;51832;48.152;11.530;2023-08-06T13:38:30;0.30;;;0.30;;
56599;SDS011;51832;48.152;11.530;2023-08-06T13:43:31;0.90;;;0.38;;
56599;SDS011;51832;48.152;11.530;2023-08-06T13:48:31;0.80;;;0.40;;
56599;SDS011;51832;48.152;11.530;2023-08-06T13:53:32;0.30;;;0.30;;
56599;SDS011;51832;48.152;11.530;2023-08-06T13:58:32;0.60;;;0.40;;
56599;SDS011;51832;48.152;11.530;2023-08-06T14:03:33;0.40;;;0.40;;
56599;SDS011;51832;48.152;11.530;2023-08-06T14:08:34;0.40;;;0.40;;
56599;SDS011;51832;48.152;11.530;2023-08-06T14:13:34;0.50;;;0.50;;
56599;SDS011;51832;48.152;11.530;2023-08-06T14:18:35;0.40;;;0.40;;
56599;SDS011;51832;48.152;11.530;2023-08-06T14:23:37;0.90;;;0.40;;
56599;SDS011;51832;48.152;11.530;2023-08-06T14:28:38;1.33;;;0.50;;
56599;SDS011;51832;48.152;11.530;2023-08-06T14:33:38;0.45;;;0.40;;
56599;SDS011;51832;48.152;11.530;2023-08-06T14:38:39;0.50;;;0.30;;
56599;SDS011;51832;48.152;11.530;2023-08-06T14:43:39;0.40;;;0.40;;
56599;SDS011;51832;48.152;11.530;2023-08-06T14:48:40;1.73;;;0.60;;
56599;SDS011;51832;48.152;11.530;2023-08-06T14:53:42;0.50;;;0.50;;
56599;SDS011;51832;48.152;11.530;2023-08-06T14:58:42;1.03;;;0.40;;
56599;SDS011;51832;48.152;11.530;2023-08-06T15:03:43;1.13;;;0.40;;
56599;SDS011;51832;48.152;11.530;2023-08-06T15:08:43;1.07;;;0.40;;
56599;SDS011;51832;48.152;11.530;2023-08-06T15:18:46;0.88;;;0.40;;
56599;SDS011;51832;48.152;11.530;2023-08-06T15:23:48;0.32;;;0.32;;
56599;SDS011;51832;48.152;11.530;2023-08-06T15:28:49;3.07;;;1.50;;
56599;SDS011;51832;48.152;11.530;2023-08-06T15:33:49;0.57;;;0.35;;
56599;SDS011;51832;48.152;11.530;2023-08-06T15:38:50;0.40;;;0.40;;
56599;SDS011;51832;48.152;11.530;2023-08-06T15:43:50;0.43;;;0.43;;
56599;SDS011;51832;48.152;11.530;2023-08-06T15:48:50;0.52;;;0.50;;
56599;SDS011;51832;48.152;11.530;2023-08-06T15:53:51;2.42;;;0.65;;
56599;SDS011;51832;48.152;11.530;2023-08-06T15:58:57;1.30;;;0.50;;
56599;SDS011;51832;48.152;11.530;2023-08-06T16:03:58;0.95;;;0.40;;
56599;SDS011;51832;48.152;11.530;2023-08-06T16:08:58;1.40;;;0.70;;
56599;SDS011;51832;48.152;11.530;2023-08-06T16:13:58;0.50;;;0.50;;
56599;SDS011;51832;48.152;11.530;2023-08-06T16:19:00;0.77;;;0.60;;
56599;SDS011;51832;48.152;11.530;2023-08-06T16:24:02;0.55;;;0.50;;
56599;SDS011;51832;48.152;11.530;2023-08-06T16:29:04;0.50;;;0.45;;
56599;SDS011;51832;48.152;11.530;2023-08-06T16:34:04;0.70;;;0.40;;
56599;SDS011;51832;48.152;11.530;2023-08-06T16:39:05;1.33;;;0.45;;
56599;SDS011;51832;48.152;11.530;2023-08-06T16:44:05;0.73;;;0.35;;
56599;SDS011;51832;48.152;11.530;2023-08-06T16:49:07;0.50;;;0.50;;
56599;SDS011;51832;48.152;11.530;2023-08-06T16:54:08;0.47;;;0.40;;
56599;SDS011;51832;48.152;11.530;2023-08-06T16:59:08;0.40;;;0.40;;
56599;SDS011;51832;48.152;11.530;2023-08-06T17:04:09;0.47;;;0.40;;
56599;SDS011;51832;48.152;11.530;2023-08-06T17:09:09;0.65;;;0.50;;
56599;SDS011;51832;48.152;11.530;2023-08-06T17:14:12;0.77;;;0.50;;
56599;SDS011;51832;48.152;11.530;2023-08-06T17:19:12;1.30;;;0.67;;
56599;SDS011;51832;48.152;11.530;2023-08-06T17:24:12;1.20;;;0.60;;
56599;SDS011;51832;48.152;11.530;2023-08-06T17:29:13;0.60;;;0.60;;
56599;SDS011;51832;48.152;11.530;2023-08-06T17:34:13;0.50;;;0.50;;
56599;SDS011;51832;48.152;11.530;2023-08-06T17:39:14;0.40;;;0.40;;
56599;SDS011;51832;48.152;11.530;2023-08-06T17:44:14;0.73;;;0.60;;
56599;SDS011;51832;48.152;11.530;2023-08-06T17:49:15;1.90;;;0.60;;
56599;SDS011;51832;48.152;11.530;2023-08-06T17:54:15;0.47;;;0.47;;
56599;SDS011;51832;48.152;11.530;2023-08-06T17:59:16;2.08;;;0.70;;
56599;SDS011;51832;48.152;11.530;2023-08-06T18:04:16;0.90;;;0.63;;
56599;SDS011;51832;48.152;11.530;2023-08-06T18:09:16;1.53;;;0.60;;
56599;SDS011;51832;48.152;11.530;2023-08-06T18:14:17;0.50;;;0.50;;
56599;SDS011;51832;48.152;11.530;2023-08-06T18:19:18;0.50;;;0.50;;
56599;SDS011;51832;48.152;11.530;2023-08-06T18:24:18;1.10;;;0.60;;
56599;SDS011;51832;48.152;11.530;2023-08-06T18:29:19;1.88;;;0.80;;
56599;SDS011;51832;48.152;11.530;2023-08-06T18:34:19;1.10;;;0.82;;
56599;SDS011;51832;48.152;11.530;2023-08-06T18:39:20;1.35;;;0.95;;
56599;SDS011;51832;48.152;11.530;2023-08-06T18:44:20;1.23;;;0.90;;
56599;SDS011;51832;48.152;11.530;2023-08-06T18:49:20;1.83;;;0.80;;
56599;SDS011;51832;48.152;11.530;2023-08-06T18:54:21;1.98;;;0.80;;
56599;SDS011;51832;48.152;11.530;2023-08-06T18:59:23;0.93;;;0.82;;
56599;SDS011;51832;48.152;11.530;2023-08-06T19:04:23;7.45;;;1.67;;
56599;SDS011;51832;48.152;11.530;2023-08-06T19:09:24;0.73;;;0.73;;
56599;SDS011;51832;48.152;11.530;2023-08-06T19:14:25;1.65;;;0.80;;
56599;SDS011;51832;48.152;11.530;2023-08-06T19:19:26;1.38;;;1.10;;
56599;SDS011;51832;48.152;11.530;2023-08-06T19:24:27;1.90;;;0.93;;
56599;SDS011;51832;48.152;11.530;2023-08-06T19:29:29;1.38;;;0.90;;
56599;SDS011;51832;48.152;11.530;2023-08-06T19:34:29;1.83;;;0.93;;
56599;SDS011;51832;48.152;11.530;2023-08-06T19:39:29;1.42;;;1.00;;
56599;SDS011;51832;48.152;11.530;2023-08-06T19:44:30;1.83;;;0.57;;
56599;SDS011;51832;48.152;11.530;2023-08-06T19:49:30;1.30;;;0.77;;
56599;SDS011;51832;48.152;11.530;2023-08-06T19:54:31;0.50;;;0.50;;
56599;SDS011;51832;48.152;11.530;2023-08-06T19:59:31;1.35;;;0.80;;
56599;SDS011;51832;48.152;11.530;2023-08-06T20:04:32;0.90;;;0.80;;
56599;SDS011;51832;48.152;11.530;2023-08-06T20:09:32;1.08;;;0.82;;
56599;SDS011;51832;48.152;11.530;2023-08-06T20:14:33;1.33;;;0.82;;
56599;SDS011;51832;48.152;11.530;2023-08-06T20:19:33;1.00;;;0.85;;
56599;SDS011;51832;48.152;11.530;2023-08-06T20:24:34;1.05;;;0.90;;
56599;SDS011;51832;48.152;11.530;2023-08-06T20:29:35;1.95;;;1.02;;
56599;SDS011;51832;48.152;11.530;2023-08-06T20:34:35;2.83;;;1.42;;
56599;SDS011;51832;48.152;11.530;2023-08-06T20:39:36;0.98;;;0.80;;
56599;SDS011;51832;48.152;11.530;2023-08-06T20:44:37;1.00;;;0.70;;
56599;SDS011;51832;48.152;11.530;2023-08-06T20:49:38;2.03;;;1.00;;
56599;SDS011;51832;48.152;11.530;2023-08-06T20:54:38;2.73;;;0.80;;
56599;SDS011;51832;48.152;11.530;2023-08-06T20:59:39;1.88;;;0.70;;
56599;SDS011;51832;48.152;11.530;2023-08-06T21:04:40;1.00;;;0.80;;
56599;SDS011;51832;48.152;11.530;2023-08-06T21:09:41;0.93;;;0.70;;
56599;SDS011;51832;48.152;11.530;2023-08-06T21:14:42;2.47;;;0.80;;
56599;SDS011;51832;48.152;11.530;2023-08-06T21:19:42;1.48;;;0.88;;
56599;SDS011;51832;48.152;11.530;2023-08-06T21:24:43;1.15;;;0.85;;
56599;SDS011;51832;48.152;11.530;2023-08-06T21:29:43;1.17;;;0.88;;
56599;SDS011;51832;48.152;11.530;2023-08-06T21:34:44;1.40;;;1.08;;
56599;SDS011;51832;48.152;11.530;2023-08-06T21:39:45;1.50;;;0.88;;
56599;SDS011;51832;48.152;11.530;2023-08-06T21:44:47;1.20;;;1.10;;
56599;SDS011;51832;48.152;11.530;2023-08-06T21:54:49;1.80;;;0.90;;
56599;SDS011;51832;48.152;11.530;2023-08-06T21:59:50;2.95;;;1.00;;
56599;SDS011;51832;48.152;11.530;2023-08-06T22:04:51;1.05;;;0.88;;
56599;SDS011;51832;48.152;11.530;2023-08-06T22:09:51;1.88;;;1.10;;
56599;SDS011;51832;48.152;11.530;2023-08-06T22:14:51;1.55;;;0.73;;
56599;SDS011;51832;48.152;11.530;2023-08-06T22:19:53;1.17;;;0.80;;
56599;SDS011;51832;48.152;11.530;2023-08-06T22:24:54;1.75;;;1.20;;
56599;SDS011;51832;48.152;11.530;2023-08-06T22:29:54;1.00;;;0.80;;
56599;SDS011;51832;48.152;11.530;2023-08-06T22:34:55;1.88;;;0.82;;
56599;SDS011;51832;48.152;11.530;2023-08-06T22:39:56;3.58;;;1.83;;
56599;SDS011;51832;48.152;11.530;2023-08-06T22:44:59;3.28;;;0.95;;
56599;SDS011;51832;48.152;11.530;2023-08-06T22:50:00;2.33;;;1.02;;
56599;SDS011;51832;48.152;11.530;2023-08-06T22:55:00;1.48;;;0.95;;
56599;SDS011;51832;48.152;11.530;2023-08-06T23:00:02;3.03;;;1.00;;
56599;SDS011;51832;48.152;11.530;2023-08-06T23:05:04;1.42;;;0.60;;
56599;SDS011;51832;48.152;11.530;2023-08-06T23:10:05;1.42;;;0.85;;
56599;SDS011;51832;48.152;11.530;2023-08-06T23:15:07;1.85;;;1.10;;
56599;SDS011;51832;48.152;11.530;2023-08-06T23:20:08;1.33;;;0.80;;
56599;SDS011;51832;48.152;11.530;2023-08-06T23:25:08;1.35;;;0.80;;
56599;SDS011;51832;48.152;11.530;2023-08-06T23:30:09;3.03;;;0.90;;
56599;SDS011;51832;48.152;11.530;2023-08-06T23:35:10;1.83;;;1.10;;
56599;SDS011;51832;48.152;11.530;2023-08-06T23:40:10;1.95;;;1.00;;
56599;SDS011;51832;48.152;11.530;2023-08-06T23:45:11;1.23;;;0.70;;
56599;SDS011;51832;48.152;11.530;2023-08-06T23:50:11;1.15;;;0.77;;
56599;SDS011;51832;48.152;11.530;2023-08-06T23:55:12;1.45;;;0.75;;
